createdAt,value
2022-09-27T00:03:14.391Z,16.00
2022-09-27T00:04:45.153Z,19.90
2022-09-27T00:06:54.791Z,19.70
2022-09-27T00:09:26.270Z,30.00
2022-09-27T00:11:32.589Z,14.60
2022-09-27T00:17:29.638Z,19.90
2022-09-27T00:19:28.865Z,13.50
2022-09-27T00:23:19.565Z,18.50
2022-09-27T00:25:47.250Z,12.00
2022-09-27T00:29:15.316Z,15.60
2022-09-27T00:31:15.223Z,13.50
2022-09-27T00:34:56.549Z,15.40
2022-09-27T00:40:36.014Z,22.20
2022-09-27T00:43:35.081Z,41.50
2022-09-27T00:45:53.753Z,8.80
2022-09-27T00:51:27.194Z,11.50
2022-09-27T00:55:15.763Z,12.40
2022-09-27T01:02:20.916Z,9.30
2022-09-27T01:10:53.440Z,7.20
2022-09-27T01:13:13.902Z,6.50
2022-09-27T01:17:03.627Z,5.40
2022-09-27T01:31:05.946Z,7.00
2022-09-27T01:33:37.081Z,4.10
2022-09-27T01:36:29.660Z,4.70
2022-09-27T01:37:59.644Z,3.50
2022-09-27T01:40:01.579Z,5.30
2022-09-27T01:45:45.613Z,2.90
2022-09-27T01:53:07.569Z,1.70
2022-09-27T01:55:36.308Z,4.40
2022-09-27T01:59:24.544Z,3.60
2022-09-27T02:01:14.377Z,2.90
2022-09-27T02:04:51.461Z,3.00
2022-09-27T02:07:12.195Z,2.60
2022-09-27T02:14:56.342Z,4.90
2022-09-27T02:16:28.184Z,4.10
2022-09-27T02:20:15.495Z,4.90
2022-09-27T02:22:17.012Z,3.90
2022-09-27T02:24:16.159Z,6.10
2022-09-27T02:28:43.458Z,4.10
2022-09-27T02:31:12.668Z,3.10
2022-09-27T02:32:46.610Z,4.80
2022-09-27T02:34:20.589Z,5.00
2022-09-27T02:38:05.683Z,2.80
2022-09-27T02:39:36.503Z,4.60
2022-09-27T02:45:25.807Z,3.10
2022-09-27T02:50:02.022Z,6.90
2022-09-27T02:52:03.758Z,4.70
2022-09-27T02:53:33.700Z,5.80
2022-09-27T02:57:19.549Z,4.10
2022-09-27T02:58:49.459Z,4.40
2022-09-27T03:05:25.480Z,2.40
2022-09-27T03:10:02.777Z,5.30
2022-09-27T03:14:24.181Z,4.20
2022-09-27T03:16:10.899Z,1.70
2022-09-27T03:18:39.272Z,3.40
2022-09-27T03:20:35.642Z,3.00
2022-09-27T03:25:35.331Z,3.00
2022-09-27T03:27:55.403Z,4.70
2022-09-27T03:30:54.854Z,5.20
2022-09-27T03:32:43.997Z,5.30
2022-09-27T03:41:03.864Z,5.30
2022-09-27T03:42:35.368Z,1.40
2022-09-27T03:45:08.339Z,3.60
2022-09-27T03:46:37.306Z,5.80
2022-09-27T03:50:41.098Z,3.10
2022-09-27T03:52:41.058Z,3.70
2022-09-27T03:54:16.743Z,3.20
2022-09-27T03:57:09.358Z,3.10
2022-09-27T03:59:26.942Z,3.10
2022-09-27T04:03:28.138Z,1.80
2022-09-27T04:05:47.707Z,2.80
2022-09-27T04:07:21.468Z,4.10
2022-09-27T04:10:08.166Z,4.60
2022-09-27T04:11:58.180Z,1.90
2022-09-27T04:15:20.233Z,2.20
2022-09-27T04:16:53.754Z,2.60
2022-09-27T04:19:21.291Z,3.70
2022-09-27T04:22:09.283Z,4.30
2022-09-27T04:26:04.859Z,4.50
2022-09-27T04:27:40.113Z,5.40
2022-09-27T04:29:13.965Z,3.20
2022-09-27T04:32:02.059Z,2.70
2022-09-27T04:39:59.007Z,4.00
2022-09-27T04:42:21.436Z,3.90
2022-09-27T04:45:35.493Z,2.60
2022-09-27T04:49:24.861Z,6.30
2022-09-27T04:50:54.851Z,3.20
2022-09-27T04:53:23.832Z,2.10
2022-09-27T04:55:00.089Z,2.70
2022-09-27T04:58:08.803Z,3.30
2022-09-27T04:59:58.015Z,6.00
2022-09-27T05:04:50.812Z,3.40
2022-09-27T05:06:38.034Z,5.30
2022-09-27T05:09:05.433Z,4.20
2022-09-27T05:18:10.053Z,3.70
2022-09-27T05:20:39.613Z,5.20
2022-09-27T05:22:47.145Z,4.70
2022-09-27T05:27:39.244Z,5.10
2022-09-27T05:32:41.710Z,3.00
2022-09-27T05:35:45.628Z,4.80
2022-09-27T05:37:14.155Z,6.10
2022-09-27T05:41:41.068Z,6.80
2022-09-27T05:45:27.726Z,5.00
2022-09-27T05:50:49.395Z,5.20
2022-09-27T05:54:05.440Z,2.40
2022-09-27T06:01:44.546Z,4.00
2022-09-27T06:05:15.895Z,8.60
2022-09-27T06:11:33.713Z,9.50
2022-09-27T06:14:17.983Z,4.10
2022-09-27T06:17:27.508Z,7.10
2022-09-27T06:19:02.642Z,4.40
2022-09-27T06:20:52.040Z,5.60
2022-09-27T06:22:43.576Z,4.40
2022-09-27T06:24:29.821Z,5.30
2022-09-27T06:26:03.910Z,6.00
2022-09-27T06:29:49.163Z,3.90
2022-09-27T06:31:50.528Z,3.00
2022-09-27T06:33:50.706Z,8.30
2022-09-27T06:35:54.787Z,6.90
2022-09-27T06:38:07.052Z,7.10
2022-09-27T06:40:44.483Z,3.10
2022-09-27T06:42:16.316Z,8.30
2022-09-27T06:46:14.399Z,10.50
2022-09-27T06:49:43.991Z,4.70
2022-09-27T06:53:57.205Z,6.30
2022-09-27T06:58:09.641Z,5.40
2022-09-27T07:01:41.292Z,9.00
2022-09-27T07:05:16.434Z,5.80
2022-09-27T07:09:47.040Z,6.60
2022-09-27T07:12:49.267Z,5.90
2022-09-27T07:14:18.766Z,7.80
2022-09-27T07:16:22.899Z,6.50
2022-09-27T07:21:04.331Z,6.10
2022-09-27T07:23:13.300Z,9.30
2022-09-27T07:27:30.168Z,7.20
2022-09-27T07:34:53.799Z,9.10
2022-09-27T07:36:47.734Z,7.20
2022-09-27T07:38:51.666Z,7.70
2022-09-27T07:42:12.596Z,6.00
2022-09-27T07:45:09.378Z,9.20
2022-09-27T07:53:33.753Z,5.00
2022-09-27T07:55:22.176Z,7.80
2022-09-27T07:58:14.908Z,4.60
2022-09-27T08:00:03.506Z,8.40
2022-09-27T08:03:36.674Z,6.60
2022-09-27T08:05:53.186Z,4.00
2022-09-27T08:07:56.633Z,5.20
2022-09-27T08:10:14.905Z,4.40
2022-09-27T08:11:46.791Z,9.40
2022-09-27T08:17:11.471Z,5.40
2022-09-27T08:21:58.768Z,7.20
2022-09-27T08:26:06.865Z,3.90
2022-09-27T08:30:30.949Z,2.90
2022-09-27T08:32:23.032Z,4.90
2022-09-27T08:34:11.286Z,5.60
2022-09-27T08:37:00.430Z,4.70
2022-09-27T08:38:12.172Z,2.60
2022-09-27T08:40:29.915Z,6.90
2022-09-27T08:43:25.066Z,3.70
2022-09-27T08:46:18.967Z,4.70
2022-09-27T08:48:08.816Z,3.50
2022-09-27T08:49:37.974Z,5.40
2022-09-27T08:51:12.197Z,5.10
2022-09-27T08:54:24.849Z,7.30
2022-09-27T08:56:23.318Z,4.40
2022-09-27T08:57:52.964Z,3.70
2022-09-27T09:00:02.214Z,7.40
2022-09-27T09:02:03.828Z,5.20
2022-09-27T09:04:13.349Z,3.60
2022-09-27T09:05:44.100Z,4.90
2022-09-27T09:08:50.117Z,4.50
2022-09-27T09:12:21.200Z,1.70
2022-09-27T09:14:14.607Z,5.40
2022-09-27T09:16:17.878Z,2.30
2022-09-27T09:17:46.711Z,3.40
2022-09-27T09:23:02.217Z,5.70
2022-09-27T09:27:14.445Z,3.80
2022-09-27T09:28:44.700Z,2.30
2022-09-27T09:30:13.684Z,5.70
2022-09-27T09:31:45.142Z,3.00
2022-09-27T09:34:03.985Z,2.20
2022-09-27T09:36:06.390Z,4.10
2022-09-27T09:38:28.189Z,4.00
2022-09-27T09:40:34.501Z,3.80
2022-09-27T09:42:03.491Z,3.90
2022-09-27T09:45:30.328Z,3.60
2022-09-27T09:46:59.301Z,2.70
2022-09-27T09:49:04.420Z,3.20
2022-09-27T09:50:33.231Z,3.20
2022-09-27T09:53:13.442Z,2.20
2022-09-27T09:54:44.639Z,2.50
2022-09-27T09:57:14.643Z,2.00
2022-09-27T10:00:06.357Z,3.80
2022-09-27T10:02:54.197Z,2.40
2022-09-27T10:06:40.969Z,1.70
2022-09-27T10:10:32.036Z,1.60
2022-09-27T10:13:28.010Z,5.30
2022-09-27T10:15:02.452Z,3.10
2022-09-27T10:16:57.082Z,2.80
2022-09-27T10:18:29.092Z,2.60
2022-09-27T10:21:37.647Z,1.10
2022-09-27T10:23:06.214Z,2.20
2022-09-27T10:26:28.686Z,2.00
2022-09-27T10:28:50.378Z,1.90
2022-09-27T10:30:20.008Z,4.70
2022-09-27T10:32:19.378Z,2.70
2022-09-27T10:34:12.279Z,3.30
2022-09-27T10:37:32.532Z,4.40
2022-09-27T10:40:50.016Z,3.00
2022-09-27T10:42:51.886Z,1.90
2022-09-27T10:45:10.687Z,4.00
2022-09-27T10:48:25.885Z,5.00
2022-09-27T10:49:54.594Z,4.40
2022-09-27T10:52:37.122Z,1.70
2022-09-27T10:55:09.765Z,2.40
2022-09-27T10:58:45.019Z,1.50
2022-09-27T11:00:16.467Z,1.90
2022-09-27T11:02:05.140Z,0.70
2022-09-27T11:03:14.247Z,4.20
2022-09-27T11:04:49.722Z,2.40
2022-09-27T11:06:45.525Z,2.00
2022-09-27T11:12:45.241Z,2.00
2022-09-27T11:14:18.705Z,1.10
2022-09-27T11:16:15.354Z,1.70
2022-09-27T11:18:17.269Z,4.00
2022-09-27T11:19:48.791Z,2.50
2022-09-27T11:21:49.249Z,2.50
2022-09-27T11:23:18.525Z,3.40
2022-09-27T11:25:52.253Z,2.10
2022-09-27T11:31:10.999Z,3.30
2022-09-27T11:34:16.487Z,1.60
2022-09-27T11:37:49.364Z,1.50
2022-09-27T11:40:49.433Z,2.70
2022-09-27T11:43:43.434Z,2.00
2022-09-27T11:46:15.275Z,2.70
2022-09-27T11:47:44.862Z,1.80
2022-09-27T11:49:44.349Z,0.60
2022-09-27T11:51:15.670Z,2.60
2022-09-27T11:52:44.177Z,3.60
2022-09-27T11:54:38.796Z,2.20
2022-09-27T11:56:09.390Z,1.20
2022-09-27T11:57:45.978Z,1.90
2022-09-27T12:03:12.025Z,2.80
2022-09-27T12:07:14.621Z,1.40
2022-09-27T12:08:43.691Z,1.50
2022-09-27T12:13:39.578Z,4.20
2022-09-27T12:15:08.830Z,2.10
2022-09-27T12:16:38.097Z,1.50
2022-09-27T12:18:51.278Z,1.90
2022-09-27T12:20:19.488Z,2.40
2022-09-27T12:21:53.151Z,1.30
2022-09-27T12:23:38.149Z,2.40
2022-09-27T12:25:28.227Z,3.50
2022-09-27T12:27:00.078Z,1.40
2022-09-27T12:28:47.964Z,1.90
2022-09-27T12:30:39.832Z,2.00
2022-09-27T12:32:13.146Z,2.20
2022-09-27T12:35:17.869Z,2.30
2022-09-27T12:37:06.114Z,2.90
2022-09-27T12:39:13.306Z,1.60
2022-09-27T12:41:10.834Z,1.90
2022-09-27T12:42:43.909Z,3.30
2022-09-27T12:44:15.638Z,4.20
2022-09-27T12:46:22.134Z,3.20
2022-09-27T12:48:22.649Z,2.30
2022-09-27T12:52:59.224Z,3.30
2022-09-27T12:54:47.608Z,2.80
2022-09-27T12:56:18.316Z,1.20
2022-09-27T12:58:37.453Z,3.00
2022-09-27T13:00:05.879Z,2.30
2022-09-27T13:01:36.277Z,3.00
2022-09-27T13:03:41.344Z,3.10
2022-09-27T13:06:18.416Z,1.80
2022-09-27T13:07:49.967Z,1.30
2022-09-27T13:09:18.356Z,1.80
2022-09-27T13:11:12.332Z,1.00
2022-09-27T13:12:39.803Z,1.80
2022-09-27T13:14:09.847Z,3.80
2022-09-27T13:20:47.743Z,2.70
2022-09-27T13:23:58.419Z,1.10
2022-09-27T13:27:39.763Z,1.10
2022-09-27T13:29:07.454Z,1.30
2022-09-27T13:30:37.194Z,1.60
2022-09-27T13:33:09.879Z,2.00
2022-09-27T13:37:28.181Z,1.50
2022-09-27T13:40:58.906Z,1.30
2022-09-27T13:42:30.724Z,2.10
2022-09-27T13:50:33.947Z,2.40
2022-09-27T13:52:03.363Z,3.50
2022-09-27T13:54:10.059Z,1.50
2022-09-27T14:00:44.245Z,2.00
2022-09-27T14:03:08.878Z,1.10
2022-09-27T14:05:42.649Z,2.00
2022-09-27T14:07:11.149Z,1.90
2022-09-27T14:08:41.143Z,3.20
2022-09-27T14:13:07.178Z,2.00
2022-09-27T14:18:22.295Z,2.00
2022-09-27T14:21:14.347Z,1.70
2022-09-27T14:23:17.690Z,2.00
2022-09-27T14:31:26.812Z,2.70
2022-09-27T14:34:19.111Z,1.40
2022-09-27T14:36:39.146Z,2.60
2022-09-27T14:38:53.319Z,1.90
2022-09-27T14:40:26.162Z,1.40
2022-09-27T14:43:31.908Z,3.70
2022-09-27T14:46:37.105Z,2.30
2022-09-27T14:50:06.484Z,0.80
2022-09-27T14:53:16.395Z,0.60
2022-09-27T14:57:39.394Z,1.50
2022-09-27T14:59:57.054Z,1.10
2022-09-27T15:08:54.196Z,0.90
2022-09-27T15:10:39.987Z,1.20
2022-09-27T15:14:28.931Z,1.30
2022-09-27T15:16:34.699Z,1.20
2022-09-27T15:19:54.307Z,0.70
2022-09-27T15:21:33.374Z,1.40
2022-09-27T15:24:02.093Z,1.10
2022-09-27T15:27:12.391Z,0.60
2022-09-27T15:30:50.720Z,1.70
2022-09-27T15:32:24.845Z,1.90
2022-09-27T15:38:33.870Z,2.10
2022-09-27T15:48:59.233Z,2.00
2022-09-27T15:50:27.116Z,4.60
2022-09-27T15:51:57.437Z,1.50
2022-09-27T15:53:27.369Z,2.20
2022-09-27T15:55:16.005Z,1.30
2022-09-27T15:56:44.933Z,1.30
2022-09-27T16:01:32.825Z,1.60
2022-09-27T16:04:26.784Z,4.50
2022-09-27T16:08:26.673Z,1.20
2022-09-27T16:15:17.050Z,2.00
2022-09-27T16:18:49.881Z,3.00
2022-09-27T16:22:01.317Z,1.80
2022-09-27T16:25:41.028Z,2.00
2022-09-27T16:28:16.111Z,1.80
2022-09-27T16:30:39.540Z,4.90
2022-09-27T16:32:11.256Z,1.50
2022-09-27T16:36:49.822Z,2.60
2022-09-27T16:39:43.995Z,1.80
2022-09-27T16:42:15.443Z,1.60
2022-09-27T16:46:54.673Z,2.50
2022-09-27T16:48:24.523Z,0.80
2022-09-27T16:51:21.841Z,1.60
2022-09-27T16:56:21.604Z,3.80
2022-09-27T17:00:23.585Z,2.80
2022-09-27T17:11:38.523Z,5.00
2022-09-27T17:13:45.248Z,5.20
2022-09-27T17:15:39.309Z,4.60
2022-09-27T17:19:17.415Z,2.10
2022-09-27T17:21:50.219Z,1.80
2022-09-27T17:23:47.366Z,2.70
2022-09-27T17:25:19.299Z,3.00
2022-09-27T17:31:18.932Z,2.20
2022-09-27T17:34:40.558Z,3.10
2022-09-27T17:36:38.382Z,3.10
2022-09-27T17:38:09.056Z,3.10
2022-09-27T17:40:36.249Z,3.90
2022-09-27T17:42:08.022Z,4.00
2022-09-27T17:43:40.153Z,3.40
2022-09-27T17:45:08.725Z,2.70
2022-09-27T17:48:00.626Z,3.90
2022-09-27T17:50:29.778Z,4.80
2022-09-27T17:52:30.024Z,4.40
2022-09-27T17:54:10.153Z,2.90
2022-09-27T17:59:08.542Z,3.50
2022-09-27T18:01:00.999Z,4.80
2022-09-27T18:14:56.317Z,5.30
2022-09-27T18:16:55.242Z,5.40
2022-09-27T18:21:03.215Z,2.40
2022-09-27T18:23:32.278Z,7.10
2022-09-27T18:27:10.615Z,2.30
2022-09-27T18:29:08.484Z,4.80
2022-09-27T18:31:07.493Z,4.00
2022-09-27T18:32:38.311Z,2.50
2022-09-27T18:35:04.219Z,3.30
2022-09-27T18:38:02.924Z,3.70
2022-09-27T18:40:44.343Z,4.80
2022-09-27T18:43:24.590Z,6.10
2022-09-27T18:46:43.536Z,2.60
2022-09-27T18:53:02.884Z,5.80
2022-09-27T18:57:50.940Z,2.70
2022-09-27T18:59:20.327Z,4.80
2022-09-27T19:03:09.130Z,3.90
2022-09-27T19:05:38.887Z,3.70
2022-09-27T19:09:49.402Z,4.60
2022-09-27T19:11:18.305Z,3.90
2022-09-27T19:14:16.406Z,4.70
2022-09-27T19:16:13.287Z,3.80
2022-09-27T19:18:02.299Z,5.90
2022-09-27T19:23:29.601Z,5.70
2022-09-27T19:25:47.251Z,5.00
2022-09-27T19:30:35.576Z,9.80
2022-09-27T19:33:29.352Z,5.60
2022-09-27T19:35:01.147Z,4.00
2022-09-27T19:37:04.755Z,7.40
2022-09-27T19:38:29.965Z,6.50
2022-09-27T19:41:13.386Z,3.90
2022-09-27T19:43:31.978Z,6.30
2022-09-27T19:45:28.211Z,6.00
2022-09-27T19:48:44.746Z,6.10
2022-09-27T19:50:14.666Z,3.90
2022-09-27T19:51:43.566Z,8.20
2022-09-27T19:53:41.496Z,7.20
2022-09-27T19:58:49.812Z,7.40
2022-09-27T20:00:40.438Z,6.30
2022-09-27T20:04:37.572Z,4.00
2022-09-27T20:07:48.213Z,5.30
2022-09-27T20:09:37.220Z,6.00
2022-09-27T20:14:10.414Z,5.10
2022-09-27T20:17:27.078Z,4.50
2022-09-27T20:19:53.287Z,8.30
2022-09-27T20:22:12.369Z,4.90
2022-09-27T20:29:06.400Z,6.60
2022-09-27T20:31:36.175Z,6.20
2022-09-27T20:33:34.968Z,8.50
2022-09-27T20:38:55.241Z,6.20
2022-09-27T20:41:31.556Z,7.00
2022-09-27T20:50:12.956Z,8.50
2022-09-27T20:53:44.112Z,5.30
2022-09-27T20:58:28.648Z,6.60
2022-09-27T21:02:22.574Z,5.90
2022-09-27T21:03:53.371Z,6.60
2022-09-27T21:08:20.457Z,7.80
2022-09-27T21:13:55.094Z,7.00
2022-09-27T21:20:12.676Z,6.90
2022-09-27T21:27:02.005Z,6.90
2022-09-27T21:30:20.024Z,6.50
2022-09-27T21:34:46.848Z,6.70
2022-09-27T21:37:47.567Z,7.20
2022-09-27T21:39:14.426Z,7.90
2022-09-27T21:41:46.909Z,7.80
2022-09-27T21:49:06.606Z,7.20
2022-09-27T21:53:23.717Z,9.80
2022-09-27T21:54:54.582Z,7.80
2022-09-27T21:57:22.346Z,7.70
2022-09-27T21:59:47.105Z,7.90
2022-09-27T22:02:05.891Z,9.80
2022-09-27T22:05:04.046Z,8.20
2022-09-27T22:09:03.523Z,11.40
2022-09-27T22:13:18.639Z,10.90
2022-09-27T22:15:48.524Z,9.30
2022-09-27T22:17:51.671Z,8.90
2022-09-27T22:19:50.551Z,10.00
2022-09-27T22:24:10.353Z,9.70
2022-09-27T22:26:59.955Z,11.40
2022-09-27T22:29:26.606Z,11.20
2022-09-27T22:31:54.697Z,7.30
2022-09-27T22:38:12.104Z,7.20
2022-09-27T22:44:42.506Z,7.50
2022-09-27T22:46:12.745Z,8.10
2022-09-27T22:47:41.752Z,7.20
2022-09-27T22:49:39.759Z,9.00
2022-09-27T22:51:38.635Z,7.50
2022-09-27T22:55:06.593Z,6.90
2022-09-27T22:58:04.009Z,6.90
2022-09-27T23:00:32.903Z,8.60
2022-09-27T23:05:28.438Z,7.90
2022-09-27T23:08:17.285Z,8.80
2022-09-27T23:12:58.320Z,9.50
2022-09-27T23:15:46.935Z,8.00
2022-09-27T23:18:04.581Z,8.00
2022-09-27T23:23:12.223Z,8.60
2022-09-27T23:25:59.864Z,9.40
2022-09-27T23:28:27.580Z,9.00
2022-09-27T23:30:58.761Z,8.70
2022-09-27T23:38:31.616Z,8.40
2022-09-27T23:44:08.039Z,7.00
2022-09-27T23:47:38.081Z,8.30
2022-09-27T23:52:26.589Z,7.30
2022-09-27T23:59:58.287Z,7.50
